Time;durP1;ratioP1;P1;durP2;ratioP2;P2;SDS_P1;SDS_P2;PMS_P1;PMS_P2;Temp;Humidity;BMP_temperature;BMP_pressure;BME280_temperature;BME280_humidity;BME280_pressure;Samples;Min_cycle;Max_cycle;Signal;HPM_P1;HPM_P2
2021/12/26 00:01:27;;;;;;;28.67;18.50;;;5.20;99.90;;;;;;5043497;28;20480;-46
2021/12/26 00:03:54;;;;;;;19.83;12.37;;;5.20;99.90;;;;;;5046896;28;20916;-45
2021/12/26 00:06:25;;;;;;;21.80;13.50;;;5.20;99.90;;;;;;5041927;28;20491;-45
2021/12/26 00:08:54;;;;;;;25.77;18.50;;;5.20;99.90;;;;;;5077588;28;20521;-45
2021/12/26 00:11:21;;;;;;;34.80;22.07;;;5.20;99.90;;;;;;5055153;28;20486;-45
2021/12/26 00:13:50;;;;;;;29.70;19.40;;;5.20;99.90;;;;;;5068828;28;21029;-46
2021/12/26 00:16:16;;;;;;;32.87;20.33;;;5.20;99.90;;;;;;5064075;28;20495;-46
2021/12/26 00:18:45;;;;;;;32.13;20.87;;;5.20;99.90;;;;;;5067370;28;20482;-46
2021/12/26 00:21:12;;;;;;;29.43;17.23;;;5.20;99.90;;;;;;5066126;28;20591;-45
2021/12/26 00:23:39;;;;;;;27.43;15.80;;;5.20;99.90;;;;;;5066199;28;20489;-46
2021/12/26 00:26:06;;;;;;;23.27;14.57;;;5.20;99.90;;;;;;5057131;28;20474;-45
2021/12/26 00:28:33;;;;;;;27.80;16.70;;;5.20;99.90;;;;;;5084878;27;20583;-46
2021/12/26 00:31:01;;;;;;;27.47;16.47;;;5.10;99.90;;;;;;5098876;27;20479;-46
2021/12/26 00:33:29;;;;;;;24.57;15.17;;;5.10;99.90;;;;;;5068302;28;21061;-46
2021/12/26 00:35:57;;;;;;;29.83;17.43;;;5.20;99.90;;;;;;5067617;28;20487;-46
2021/12/26 00:38:23;;;;;;;30.00;15.30;;;5.10;99.90;;;;;;5064801;28;20596;-46
2021/12/26 00:40:50;;;;;;;25.77;15.10;;;5.10;99.90;;;;;;5069846;28;20487;-47
2021/12/26 00:43:17;;;;;;;41.27;20.97;;;5.20;99.90;;;;;;5065629;28;20475;-46
2021/12/26 00:45:45;;;;;;;26.70;15.63;;;5.20;99.90;;;;;;5064826;28;20872;-46
2021/12/26 00:48:13;;;;;;;35.23;19.20;;;5.20;99.90;;;;;;5060832;28;20855;-46
2021/12/26 00:50:43;;;;;;;35.50;18.97;;;5.20;99.90;;;;;;5065262;28;20463;-45
2021/12/26 00:53:10;;;;;;;28.90;16.07;;;5.20;99.90;;;;;;5066782;28;20988;-46
2021/12/26 00:55:38;;;;;;;29.53;16.00;;;5.20;99.90;;;;;;5053053;28;21040;-45
2021/12/26 00:58:05;;;;;;;28.17;16.27;;;5.20;99.90;;;;;;5076697;27;20474;-46
2021/12/26 01:00:35;;;;;;;30.67;16.13;;;5.20;99.90;;;;;;5077678;27;20540;-46
2021/12/26 01:03:04;;;;;;;25.37;14.40;;;5.20;99.90;;;;;;5063635;28;20487;-46
2021/12/26 01:05:34;;;;;;;36.40;16.80;;;5.20;99.90;;;;;;5063813;28;21064;-46
2021/12/26 01:08:03;;;;;;;33.33;16.47;;;5.20;99.90;;;;;;5063416;28;20514;-46
2021/12/26 01:10:33;;;;;;;26.30;14.60;;;5.20;99.90;;;;;;5064459;28;20495;-46
2021/12/26 01:13:10;;;;;;;26.03;14.13;;;5.20;99.90;;;;;;5066583;28;20483;-46
2021/12/26 01:15:37;;;;;;;23.30;14.03;;;5.20;99.90;;;;;;5063728;28;20614;-46
2021/12/26 01:18:04;;;;;;;20.33;12.53;;;5.20;99.90;;;;;;5070284;28;21308;-45
2021/12/26 01:20:46;;;;;;;23.63;13.73;;;5.20;99.90;;;;;;5066556;28;21021;-46
2021/12/26 01:23:16;;;;;;;23.33;12.20;;;5.20;99.90;;;;;;5070841;27;20495;-46
2021/12/26 01:25:43;;;;;;;21.27;13.40;;;5.20;99.90;;;;;;5081814;27;20585;-46
2021/12/26 01:28:10;;;;;;;22.63;12.13;;;5.20;99.90;;;;;;5069316;27;20511;-46
2021/12/26 01:30:38;;;;;;;21.40;12.10;;;5.30;99.90;;;;;;5086807;27;20482;-45
2021/12/26 01:33:06;;;;;;;24.27;13.37;;;5.30;99.90;;;;;;5072196;28;20478;-45
2021/12/26 01:35:34;;;;;;;21.83;13.80;;;5.20;99.90;;;;;;5061805;27;20525;-48
2021/12/26 01:38:01;;;;;;;22.10;12.40;;;5.20;99.90;;;;;;5098913;27;20486;-46
2021/12/26 01:40:28;;;;;;;25.50;12.20;;;5.20;99.90;;;;;;5070371;28;21263;-46
2021/12/26 01:43:00;;;;;;;22.30;12.90;;;5.20;99.90;;;;;;5055073;28;20991;-46
2021/12/26 01:45:26;;;;;;;23.90;13.30;;;5.20;99.90;;;;;;5051420;28;20937;-46
2021/12/26 01:47:57;;;;;;;17.53;12.00;;;5.20;99.90;;;;;;5089810;27;20921;-46
2021/12/26 01:50:24;;;;;;;20.97;13.43;;;5.20;99.90;;;;;;5069797;28;20482;-46
2021/12/26 01:52:52;;;;;;;24.50;12.30;;;5.20;99.90;;;;;;5066964;28;21035;-46
2021/12/26 01:55:24;;;;;;;20.50;12.27;;;5.20;99.90;;;;;;5069852;28;20488;-46
2021/12/26 01:57:53;;;;;;;20.07;13.07;;;5.20;99.90;;;;;;5061201;28;21059;-46
2021/12/26 02:00:21;;;;;;;20.43;11.80;;;5.20;99.90;;;;;;5070885;28;20531;-46
2021/12/26 02:02:49;;;;;;;22.53;12.27;;;5.30;99.90;;;;;;5077177;27;20472;-46
2021/12/26 02:05:17;;;;;;;22.43;12.70;;;5.30;99.90;;;;;;5080885;27;21064;-47
2021/12/26 02:07:44;;;;;;;21.37;11.83;;;5.30;99.90;;;;;;5055666;28;20858;-47
2021/12/26 02:10:12;;;;;;;27.60;15.10;;;5.30;99.90;;;;;;5099152;27;20470;-46
2021/12/26 02:12:39;;;;;;;22.70;13.20;;;5.30;99.90;;;;;;5055448;28;20468;-46
2021/12/26 02:15:06;;;;;;;23.37;13.17;;;5.30;99.90;;;;;;5088662;27;20471;-46
2021/12/26 02:17:33;;;;;;;25.70;14.30;;;5.30;99.90;;;;;;5068857;28;20515;-46
2021/12/26 02:20:23;;;;;;;23.23;13.07;;;5.30;99.90;;;;;;5067072;28;20486;-46
2021/12/26 02:22:56;;;;;;;24.60;13.60;;;5.30;99.90;;;;;;5058713;28;20489;-46
2021/12/26 02:27:31;;;;;;;20.27;11.93;;;5.30;99.90;;;;;;5067973;28;20522;-46
2021/12/26 02:28:20;;;;;;;23.43;14.13;;;5.30;99.90;;;;;;5067989;28;20486;-45
2021/12/26 02:30:48;;;;;;;31.03;17.20;;;5.40;99.90;;;;;;5069918;28;20561;-46
2021/12/26 02:33:16;;;;;;;32.10;17.20;;;5.40;99.90;;;;;;5069404;28;20483;-46
2021/12/26 02:35:45;;;;;;;30.37;16.83;;;5.40;99.90;;;;;;5069000;28;20787;-46
2021/12/26 02:38:13;;;;;;;25.40;15.10;;;5.40;99.90;;;;;;5080683;27;20546;-46
2021/12/26 02:40:41;;;;;;;27.67;14.33;;;5.40;99.90;;;;;;5080766;27;20532;-46
2021/12/26 02:43:08;;;;;;;29.43;16.30;;;5.40;99.90;;;;;;5065007;28;20488;-46
2021/12/26 02:45:36;;;;;;;23.87;13.40;;;5.40;99.90;;;;;;5063993;27;20549;-46
2021/12/26 02:48:04;;;;;;;19.80;11.90;;;5.40;99.90;;;;;;5066310;28;20653;-47
2021/12/26 02:50:32;;;;;;;23.90;14.70;;;5.40;99.90;;;;;;5070151;28;20499;-47
2021/12/26 02:53:03;;;;;;;19.23;12.50;;;5.40;99.90;;;;;;5071293;28;20482;-46
2021/12/26 02:55:29;;;;;;;24.13;11.37;;;5.40;99.90;;;;;;5069196;28;20560;-47
2021/12/26 02:57:59;;;;;;;24.87;13.37;;;5.30;99.90;;;;;;5070193;28;20830;-47
2021/12/26 03:00:29;;;;;;;21.83;12.67;;;5.30;99.90;;;;;;5070056;28;20965;-46
2021/12/26 03:02:58;;;;;;;25.30;14.67;;;5.30;99.90;;;;;;5065851;28;20906;-46
2021/12/26 03:05:27;;;;;;;24.03;14.30;;;5.30;99.90;;;;;;5061956;28;20482;-46
2021/12/26 03:07:54;;;;;;;25.27;13.27;;;5.40;99.90;;;;;;5083116;27;20489;-46
2021/12/26 03:10:25;;;;;;;25.60;13.50;;;5.30;99.90;;;;;;5086308;27;20750;-46
2021/12/26 03:12:55;;;;;;;19.70;12.50;;;5.30;99.90;;;;;;5065942;28;20588;-46
2021/12/26 03:15:22;;;;;;;30.83;14.77;;;5.30;99.90;;;;;;5067007;27;20974;-46
2021/12/26 03:17:49;;;;;;;23.90;13.00;;;5.40;99.90;;;;;;5100044;27;20782;-46
2021/12/26 03:20:19;;;;;;;31.77;15.37;;;5.40;99.90;;;;;;5065985;28;20470;-46
2021/12/26 03:22:47;;;;;;;25.50;12.83;;;5.40;99.90;;;;;;5088720;28;20483;-46
2021/12/26 03:25:17;;;;;;;20.30;13.40;;;5.40;99.90;;;;;;5075034;28;20496;-46
2021/12/26 03:27:45;;;;;;;24.40;13.30;;;5.50;99.90;;;;;;5084533;28;20490;-46
2021/12/26 03:30:15;;;;;;;24.80;13.57;;;5.40;99.90;;;;;;5069013;27;20485;-46
2021/12/26 03:32:42;;;;;;;25.80;13.43;;;5.50;99.90;;;;;;5105755;27;20474;-46
2021/12/26 03:35:10;;;;;;;23.13;12.00;;;5.50;99.90;;;;;;5076673;28;20483;-47
2021/12/26 03:37:37;;;;;;;22.27;12.00;;;5.50;99.90;;;;;;5075431;28;20475;-46
2021/12/26 03:40:05;;;;;;;20.40;11.83;;;5.50;99.90;;;;;;5072978;28;20547;-49
2021/12/26 03:42:32;;;;;;;23.13;12.60;;;5.50;99.90;;;;;;5082878;27;20554;-46
2021/12/26 03:45:01;;;;;;;23.70;12.33;;;5.50;99.90;;;;;;5078087;28;20479;-46
2021/12/26 03:47:29;;;;;;;21.60;11.90;;;5.50;99.90;;;;;;5078373;28;20481;-46
2021/12/26 03:49:56;;;;;;;21.60;11.37;;;5.50;99.90;;;;;;5085132;28;20503;-46
2021/12/26 03:52:23;;;;;;;18.20;12.70;;;5.50;99.90;;;;;;5082637;28;20486;-46
2021/12/26 03:54:50;;;;;;;24.73;13.97;;;5.60;99.90;;;;;;5079686;28;20482;-46
2021/12/26 03:57:16;;;;;;;23.20;14.43;;;5.60;99.90;;;;;;5081602;28;20990;-46
2021/12/26 03:59:43;;;;;;;18.83;12.10;;;5.50;99.90;;;;;;5078311;28;20470;-46
2021/12/26 04:02:11;;;;;;;25.50;12.90;;;5.50;99.90;;;;;;5077857;28;20479;-46
2021/12/26 04:04:38;;;;;;;23.60;12.90;;;5.50;99.90;;;;;;5076204;28;20536;-46
2021/12/26 04:07:05;;;;;;;22.27;12.10;;;5.50;99.90;;;;;;5077698;28;20481;-46
2021/12/26 04:09:32;;;;;;;20.47;10.77;;;5.50;99.90;;;;;;5097613;27;20485;-46
2021/12/26 04:11:59;;;;;;;23.10;12.63;;;5.50;99.90;;;;;;5079388;28;20477;-46
2021/12/26 04:14:25;;;;;;;21.87;11.77;;;5.40;99.90;;;;;;5079299;28;20491;-47
2021/12/26 04:16:52;;;;;;;21.97;11.83;;;5.40;99.90;;;;;;5077542;28;20876;-47
2021/12/26 04:19:20;;;;;;;20.47;11.47;;;5.40;99.90;;;;;;5080264;28;20539;-46
2021/12/26 04:21:47;;;;;;;19.30;11.00;;;5.40;99.90;;;;;;5075866;28;20527;-46
2021/12/26 04:24:14;;;;;;;20.73;13.47;;;5.40;99.90;;;;;;5084038;28;20831;-46
2021/12/26 04:26:42;;;;;;;21.90;11.40;;;5.50;99.90;;;;;;5076752;27;20621;-46
2021/12/26 04:29:09;;;;;;;17.77;11.60;;;5.50;99.90;;;;;;5078795;28;20488;-46
2021/12/26 04:31:36;;;;;;;25.27;12.70;;;5.50;99.90;;;;;;5079503;28;20482;-46
2021/12/26 04:34:03;;;;;;;21.33;12.77;;;5.40;99.90;;;;;;5073635;28;20531;-46
2021/12/26 04:36:31;;;;;;;20.30;11.93;;;5.40;99.90;;;;;;5077838;28;20488;-46
2021/12/26 04:38:58;;;;;;;15.93;9.33;;;5.40;99.90;;;;;;5080710;28;20476;-46
2021/12/26 04:41:25;;;;;;;25.10;12.03;;;5.40;99.90;;;;;;5059434;28;20485;-45
2021/12/26 04:43:52;;;;;;;26.70;12.97;;;5.50;99.90;;;;;;5075723;28;20479;-46
2021/12/26 04:46:18;;;;;;;23.47;13.07;;;5.50;99.90;;;;;;5089424;28;20484;-46
2021/12/26 04:48:46;;;;;;;22.20;11.73;;;5.50;99.90;;;;;;5067977;28;20535;-46
2021/12/26 04:51:13;;;;;;;23.90;12.07;;;5.50;99.90;;;;;;5093917;28;21290;-46
2021/12/26 04:53:42;;;;;;;21.17;12.43;;;5.50;99.90;;;;;;5078380;28;20491;-46
2021/12/26 04:56:09;;;;;;;23.07;13.10;;;5.50;99.90;;;;;;5077882;28;20480;-46
2021/12/26 04:58:36;;;;;;;18.73;11.00;;;5.40;99.90;;;;;;5078104;28;21063;-46
2021/12/26 05:01:04;;;;;;;21.83;11.17;;;5.40;99.90;;;;;;5082555;28;20511;-47
2021/12/26 05:03:31;;;;;;;20.30;12.27;;;5.30;99.90;;;;;;5078339;28;20998;-46
2021/12/26 05:05:58;;;;;;;23.87;14.00;;;5.30;99.90;;;;;;5074420;28;20866;-46
2021/12/26 05:08:25;;;;;;;24.50;12.90;;;5.30;99.90;;;;;;5080662;28;20485;-46
2021/12/26 05:10:53;;;;;;;23.17;12.97;;;5.40;99.90;;;;;;5071397;28;20910;-46
2021/12/26 05:13:20;;;;;;;22.63;11.50;;;5.40;99.90;;;;;;5079076;28;20483;-46
2021/12/26 05:15:46;;;;;;;27.13;12.87;;;5.40;99.90;;;;;;5073861;28;20487;-46
2021/12/26 05:18:13;;;;;;;19.77;12.20;;;5.40;99.90;;;;;;5085933;28;20476;-47
2021/12/26 05:20:40;;;;;;;27.00;13.27;;;5.40;99.90;;;;;;5079233;28;20480;-47
2021/12/26 05:23:07;;;;;;;21.30;12.30;;;5.40;99.90;;;;;;5078928;28;20536;-46
2021/12/26 05:25:34;;;;;;;22.27;12.80;;;5.50;99.90;;;;;;5073163;28;20470;-46
2021/12/26 05:28:02;;;;;;;20.50;11.80;;;5.50;99.90;;;;;;5090258;28;20485;-46
2021/12/26 05:30:29;;;;;;;19.93;11.90;;;5.50;99.90;;;;;;5081138;28;20487;-46
2021/12/26 05:32:55;;;;;;;17.80;11.17;;;5.50;99.90;;;;;;5077528;28;20490;-47
2021/12/26 05:35:22;;;;;;;21.60;12.93;;;5.50;99.90;;;;;;5083682;28;20478;-46
2021/12/26 05:37:50;;;;;;;19.37;10.30;;;5.50;99.90;;;;;;5084263;28;20475;-47
2021/12/26 05:40:18;;;;;;;24.90;13.30;;;5.60;99.90;;;;;;5078105;28;21060;-46
2021/12/26 05:42:45;;;;;;;23.60;12.57;;;5.60;99.90;;;;;;5079456;28;20503;-46
2021/12/26 05:45:13;;;;;;;24.83;12.80;;;5.60;99.90;;;;;;5076596;28;20476;-46
2021/12/26 05:47:40;;;;;;;19.77;12.00;;;5.60;99.90;;;;;;5073407;28;20559;-46
2021/12/26 05:50:09;;;;;;;20.60;10.87;;;5.60;99.90;;;;;;5081746;28;20481;-47
2021/12/26 05:52:36;;;;;;;20.17;10.77;;;5.60;99.90;;;;;;5080993;28;20526;-46
2021/12/26 05:55:03;;;;;;;18.67;11.00;;;5.60;99.90;;;;;;5078278;28;20474;-47
2021/12/26 05:57:30;;;;;;;22.07;12.23;;;5.60;99.90;;;;;;5085248;28;20698;-46
2021/12/26 05:59:57;;;;;;;19.00;11.30;;;5.60;99.90;;;;;;5074656;28;20871;-47
2021/12/26 06:02:25;;;;;;;22.30;11.20;;;5.60;99.90;;;;;;5077245;28;20486;-46
2021/12/26 06:04:52;;;;;;;23.33;11.87;;;5.60;99.90;;;;;;5077985;28;20533;-46
2021/12/26 06:07:18;;;;;;;22.33;12.80;;;5.60;99.90;;;;;;5075340;28;20572;-46
2021/12/26 06:09:45;;;;;;;20.43;10.83;;;5.60;99.90;;;;;;5077183;28;20494;-46
2021/12/26 06:12:12;;;;;;;25.70;11.30;;;5.60;99.90;;;;;;5073499;28;20476;-46
2021/12/26 06:14:39;;;;;;;17.93;10.37;;;5.60;99.90;;;;;;5079933;28;20482;-46
2021/12/26 06:17:05;;;;;;;26.13;12.20;;;5.60;99.90;;;;;;5081635;28;20482;-46
2021/12/26 06:19:33;;;;;;;21.00;11.00;;;5.60;99.90;;;;;;5078706;28;20491;-48
2021/12/26 06:22:02;;;;;;;22.10;12.70;;;5.70;99.90;;;;;;5079608;28;20537;-46
2021/12/26 06:24:29;;;;;;;25.27;11.83;;;5.70;99.90;;;;;;5068156;28;20544;-46
2021/12/26 06:26:56;;;;;;;23.40;11.87;;;5.70;99.90;;;;;;5076132;28;20485;-46
2021/12/26 06:29:23;;;;;;;18.27;11.60;;;5.70;99.90;;;;;;5081672;28;20973;-46
2021/12/26 06:31:50;;;;;;;20.43;11.43;;;5.70;99.90;;;;;;5076856;28;20553;-46
2021/12/26 06:34:16;;;;;;;19.03;10.80;;;5.70;99.90;;;;;;5081256;28;20494;-46
2021/12/26 06:36:44;;;;;;;20.97;11.00;;;5.70;99.90;;;;;;5081339;28;20484;-46
2021/12/26 06:39:11;;;;;;;20.33;11.70;;;5.60;99.90;;;;;;5082322;28;20869;-47
2021/12/26 06:41:39;;;;;;;23.50;12.53;;;5.70;99.90;;;;;;5081997;28;20871;-55
2021/12/26 06:44:07;;;;;;;21.27;11.53;;;5.70;99.90;;;;;;5083097;28;20480;-46
2021/12/26 06:46:35;;;;;;;23.90;10.80;;;5.70;99.90;;;;;;5076662;28;20528;-46
2021/12/26 06:49:03;;;;;;;19.13;11.27;;;5.70;99.90;;;;;;5077204;28;20474;-46
2021/12/26 06:51:30;;;;;;;21.67;11.70;;;5.80;99.90;;;;;;5071980;28;20544;-46
2021/12/26 06:53:58;;;;;;;21.00;11.90;;;5.70;99.90;;;;;;5087715;28;20501;-46
2021/12/26 06:56:25;;;;;;;19.97;11.57;;;5.70;99.90;;;;;;5076453;28;21153;-46
2021/12/26 06:58:52;;;;;;;23.67;12.83;;;5.70;99.90;;;;;;5076027;28;20483;-46
2021/12/26 07:01:18;;;;;;;22.70;12.73;;;5.60;99.90;;;;;;5075481;28;20480;-47
2021/12/26 07:03:45;;;;;;;18.17;10.50;;;5.60;99.90;;;;;;5093353;27;20519;-46
2021/12/26 07:06:12;;;;;;;20.90;11.90;;;5.60;99.90;;;;;;5084208;27;20479;-47
2021/12/26 07:08:38;;;;;;;21.20;12.20;;;5.60;99.90;;;;;;5075097;28;20549;-46
2021/12/26 07:11:06;;;;;;;26.00;13.63;;;5.70;99.90;;;;;;5081733;28;20487;-51
2021/12/26 07:13:33;;;;;;;119.63;63.83;;;5.70;99.90;;;;;;5078989;28;21242;-46
2021/12/26 07:16:00;;;;;;;79.43;42.67;;;5.70;99.90;;;;;;5079092;28;20515;-46
2021/12/26 07:18:27;;;;;;;40.07;22.90;;;5.70;99.90;;;;;;5079920;28;20528;-46
2021/12/26 07:20:53;;;;;;;31.57;17.50;;;5.70;99.90;;;;;;5075787;27;20502;-46
2021/12/26 07:23:21;;;;;;;26.17;16.20;;;5.80;99.90;;;;;;5095199;27;20532;-46
2021/12/26 07:25:47;;;;;;;28.10;16.50;;;5.90;99.90;;;;;;5080572;28;20483;-47
2021/12/26 07:28:15;;;;;;;26.60;14.93;;;5.90;99.90;;;;;;5077067;28;20481;-47
2021/12/26 07:30:43;;;;;;;21.90;12.30;;;5.90;99.90;;;;;;5077138;28;20589;-46
2021/12/26 07:33:09;;;;;;;23.70;14.40;;;5.90;99.90;;;;;;5079369;28;20544;-47
2021/12/26 07:35:36;;;;;;;31.23;14.50;;;5.90;99.90;;;;;;5078698;28;20533;-46
2021/12/26 07:38:03;;;;;;;27.37;20.30;;;5.90;99.90;;;;;;5074791;28;20483;-47
2021/12/26 07:40:30;;;;;;;28.50;21.20;;;5.90;99.90;;;;;;5080163;28;20536;-47
2021/12/26 07:42:57;;;;;;;27.47;18.63;;;5.90;99.90;;;;;;5078495;28;20495;-46
2021/12/26 07:45:25;;;;;;;25.07;14.10;;;6.00;99.90;;;;;;5075455;28;20544;-47
2021/12/26 07:47:52;;;;;;;20.90;12.17;;;5.90;99.90;;;;;;5084602;28;20468;-47
2021/12/26 07:50:18;;;;;;;19.67;11.77;;;5.90;99.90;;;;;;5080893;28;20492;-47
2021/12/26 07:52:47;;;;;;;22.93;12.47;;;6.00;99.90;;;;;;5076815;28;20610;-47
2021/12/26 07:55:14;;;;;;;16.77;12.93;;;6.00;99.90;;;;;;5081994;28;20486;-48
2021/12/26 07:57:44;;;;;;;25.87;13.43;;;6.00;99.90;;;;;;5078038;28;20928;-47
2021/12/26 08:00:11;;;;;;;19.87;12.50;;;6.00;99.90;;;;;;5079367;28;20484;-48
2021/12/26 08:02:39;;;;;;;23.20;12.90;;;6.10;99.90;;;;;;5075078;28;20544;-48
2021/12/26 08:05:07;;;;;;;23.07;11.53;;;6.10;99.90;;;;;;5079316;28;20485;-47
2021/12/26 08:07:34;;;;;;;21.90;12.53;;;6.10;99.90;;;;;;5078985;28;20479;-47
2021/12/26 08:10:01;;;;;;;21.90;12.23;;;6.10;99.90;;;;;;5078704;28;21042;-47
2021/12/26 08:12:28;;;;;;;27.30;14.23;;;6.20;99.90;;;;;;5076961;28;20492;-47
2021/12/26 08:14:55;;;;;;;31.43;13.73;;;6.20;99.90;;;;;;5076203;28;20496;-47
2021/12/26 08:17:23;;;;;;;24.90;15.63;;;6.20;99.90;;;;;;5079894;28;20480;-47
2021/12/26 08:19:51;;;;;;;24.47;14.83;;;6.20;99.90;;;;;;5076331;28;21341;-47
2021/12/26 08:22:18;;;;;;;22.97;13.97;;;6.20;99.90;;;;;;5080319;28;20538;-47
2021/12/26 08:24:45;;;;;;;21.77;12.10;;;6.30;99.90;;;;;;5078819;28;20540;-47
2021/12/26 08:27:12;;;;;;;24.90;13.10;;;6.30;99.90;;;;;;5077349;28;20475;-47
2021/12/26 08:29:38;;;;;;;24.27;12.77;;;6.40;99.90;;;;;;5084596;28;20496;-47
2021/12/26 08:32:06;;;;;;;18.00;10.67;;;6.40;99.90;;;;;;5084615;28;20537;-47
2021/12/26 08:34:33;;;;;;;20.47;11.77;;;6.40;99.90;;;;;;5082621;28;20504;-47
2021/12/26 08:37:02;;;;;;;23.50;11.43;;;6.40;99.90;;;;;;5084528;28;20508;-47
2021/12/26 08:39:32;;;;;;;16.40;10.03;;;6.40;99.90;;;;;;5079786;28;20473;-46
2021/12/26 08:41:59;;;;;;;15.57;9.43;;;6.40;99.90;;;;;;5080350;28;21050;-46
2021/12/26 08:44:26;;;;;;;15.73;9.90;;;6.40;99.90;;;;;;5084956;28;20542;-46
2021/12/26 08:46:54;;;;;;;15.10;8.60;;;6.40;99.90;;;;;;5071598;28;20486;-46
2021/12/26 08:49:22;;;;;;;18.00;10.67;;;6.40;99.90;;;;;;5099199;28;21041;-46
2021/12/26 08:51:49;;;;;;;17.20;10.30;;;6.40;99.90;;;;;;5084228;28;20472;-46
2021/12/26 08:54:17;;;;;;;16.77;9.87;;;6.40;99.90;;;;;;5075544;28;20475;-46
2021/12/26 08:56:44;;;;;;;17.50;9.87;;;6.40;99.90;;;;;;5088256;28;20486;-46
2021/12/26 08:59:11;;;;;;;16.83;8.83;;;6.50;99.90;;;;;;5085995;28;20483;-46
2021/12/26 09:01:38;;;;;;;19.10;9.43;;;6.50;99.90;;;;;;5096466;28;20483;-46
2021/12/26 09:04:05;;;;;;;15.03;9.30;;;6.50;99.90;;;;;;5082562;28;20480;-46
2021/12/26 09:06:32;;;;;;;15.80;8.50;;;6.50;99.90;;;;;;5083147;28;20478;-45
2021/12/26 09:08:59;;;;;;;13.40;8.70;;;6.40;99.90;;;;;;5074642;28;21102;-46
2021/12/26 09:11:27;;;;;;;17.00;10.17;;;6.40;99.90;;;;;;5096842;27;20542;-45
2021/12/26 09:13:54;;;;;;;18.17;11.20;;;6.40;99.90;;;;;;5092842;27;20471;-46
2021/12/26 09:16:20;;;;;;;12.80;8.83;;;6.50;99.90;;;;;;5086807;28;20482;-46
2021/12/26 09:18:48;;;;;;;14.57;9.77;;;6.60;99.90;;;;;;5079138;28;20475;-46
2021/12/26 09:21:15;;;;;;;17.23;10.77;;;6.60;99.90;;;;;;5080903;28;20472;-46
2021/12/26 09:23:42;;;;;;;19.10;8.77;;;6.60;99.90;;;;;;5080163;28;20478;-46
2021/12/26 09:26:09;;;;;;;14.20;8.97;;;6.60;99.90;;;;;;5078552;28;20475;-47
2021/12/26 09:28:38;;;;;;;17.20;10.27;;;6.70;99.90;;;;;;5086259;28;20483;-47
2021/12/26 09:31:06;;;;;;;16.10;8.40;;;6.70;99.90;;;;;;5076962;28;20480;-47
2021/12/26 09:33:33;;;;;;;11.60;7.43;;;6.70;99.90;;;;;;5087202;28;20911;-46
2021/12/26 09:36:00;;;;;;;18.07;10.00;;;6.80;99.90;;;;;;5072441;28;20757;-47
2021/12/26 09:38:27;;;;;;;17.47;10.30;;;6.70;99.90;;;;;;5079174;28;20476;-46
2021/12/26 09:40:54;;;;;;;12.53;8.07;;;6.80;99.90;;;;;;5071717;28;20487;-46
2021/12/26 09:43:20;;;;;;;12.60;7.63;;;6.80;99.90;;;;;;5068331;28;20483;-46
2021/12/26 09:45:48;;;;;;;11.30;7.90;;;6.80;99.90;;;;;;5073452;28;20906;-46
2021/12/26 09:48:16;;;;;;;9.93;6.73;;;6.90;99.90;;;;;;5077468;28;21148;-47
2021/12/26 09:50:42;;;;;;;11.93;6.03;;;6.90;99.90;;;;;;5074695;28;20881;-47
2021/12/26 09:53:10;;;;;;;9.97;7.63;;;6.80;99.90;;;;;;5079082;28;20945;-46
2021/12/26 09:55:36;;;;;;;11.23;6.00;;;6.70;99.90;;;;;;5076965;28;20475;-46
2021/12/26 09:58:04;;;;;;;9.47;6.20;;;6.70;99.90;;;;;;5081667;28;20484;-46
2021/12/26 10:00:33;;;;;;;11.57;7.30;;;6.60;99.90;;;;;;5081663;28;20911;-46
2021/12/26 10:03:14;;;;;;;7.77;5.97;;;6.60;99.90;;;;;;5077327;28;21758;-46
2021/12/26 10:06:08;;;;;;;7.77;6.10;;;6.50;99.90;;;;;;5064713;28;20478;-46
2021/12/26 10:08:51;;;;;;;9.73;6.47;;;6.50;99.90;;;;;;5068411;28;21005;-46
2021/12/26 10:11:19;;;;;;;8.27;6.30;;;6.50;99.90;;;;;;5068652;28;20529;-46
2021/12/26 10:13:48;;;;;;;10.33;6.40;;;6.60;99.90;;;;;;5059142;28;20883;-46
2021/12/26 10:16:17;;;;;;;9.57;6.70;;;6.50;99.90;;;;;;5074090;28;20494;-47
2021/12/26 10:18:46;;;;;;;9.60;6.10;;;6.60;99.90;;;;;;5073261;28;20857;-48
2021/12/26 10:21:34;;;;;;;8.97;6.63;;;6.60;99.90;;;;;;5066423;28;20488;-47
2021/12/26 10:24:05;;;;;;;10.77;7.70;;;6.50;99.90;;;;;;5077459;28;20894;-47
2021/12/26 10:26:35;;;;;;;10.40;6.27;;;6.40;99.90;;;;;;5070092;28;20483;-47
2021/12/26 10:29:13;;;;;;;5.40;3.77;;;6.40;99.90;;;;;;5073161;28;20514;-46
2021/12/26 10:31:46;;;;;;;10.33;6.40;;;6.30;99.90;;;;;;5067583;28;20534;-46
2021/12/26 10:34:29;;;;;;;12.30;7.73;;;6.40;99.90;;;;;;5071074;28;20484;-46
2021/12/26 10:36:59;;;;;;;13.40;8.30;;;6.50;99.90;;;;;;5057334;28;20537;-46
2021/12/26 10:39:28;;;;;;;4.80;4.33;;;6.70;99.90;;;;;;5079476;28;20885;-46
2021/12/26 10:41:57;;;;;;;7.83;5.60;;;6.60;99.90;;;;;;5078419;28;20479;-46
2021/12/26 10:44:27;;;;;;;3.93;3.03;;;6.50;99.90;;;;;;5100000;27;20871;-46
2021/12/26 10:46:57;;;;;;;8.30;6.07;;;6.40;99.90;;;;;;5076006;27;20495;-46
2021/12/26 10:49:31;;;;;;;7.63;5.07;;;6.30;99.90;;;;;;5077498;28;20490;-46
2021/12/26 10:52:00;;;;;;;8.97;6.67;;;6.40;99.90;;;;;;5054792;28;21039;-46
2021/12/26 10:54:31;;;;;;;17.83;10.50;;;6.40;99.90;;;;;;5084620;28;20473;-46
2021/12/26 10:57:10;;;;;;;9.73;6.77;;;6.50;99.90;;;;;;5063239;28;20477;-46
2021/12/26 10:59:39;;;;;;;6.37;4.70;;;6.60;99.90;;;;;;5074149;28;20530;-46
2021/12/26 11:02:07;;;;;;;6.93;4.60;;;6.50;99.90;;;;;;5066652;28;20522;-52
2021/12/26 11:04:37;;;;;;;5.87;4.53;;;6.50;99.90;;;;;;5084274;28;20480;-46
2021/12/26 11:07:08;;;;;;;29.40;16.10;;;6.60;99.90;;;;;;5077789;28;20487;-46
2021/12/26 11:09:34;;;;;;;6.97;5.40;;;6.70;99.90;;;;;;5059151;28;20473;-46
2021/12/26 11:12:05;;;;;;;6.30;5.30;;;6.80;99.90;;;;;;5080037;28;20480;-46
2021/12/26 11:14:31;;;;;;;8.40;6.27;;;6.70;99.90;;;;;;5081746;28;20474;-46
2021/12/26 11:16:59;;;;;;;3.77;3.47;;;6.80;99.90;;;;;;5076460;28;20468;-47
2021/12/26 11:19:45;;;;;;;6.20;3.60;;;6.80;99.90;;;;;;5084457;28;20487;-46
2021/12/26 11:22:12;;;;;;;2.37;2.17;;;6.90;99.90;;;;;;5079032;28;20545;-46
2021/12/26 11:24:39;;;;;;;4.40;3.53;;;6.90;99.90;;;;;;5075355;28;20536;-46
2021/12/26 11:27:07;;;;;;;6.87;5.23;;;6.80;99.90;;;;;;5074765;28;20528;-51
2021/12/26 11:29:34;;;;;;;7.03;4.37;;;6.80;99.90;;;;;;5098724;27;20561;-46
2021/12/26 11:32:01;;;;;;;5.57;5.07;;;6.80;99.90;;;;;;5070718;27;20488;-46
2021/12/26 11:34:30;;;;;;;10.90;4.00;;;6.90;99.90;;;;;;5091602;28;20554;-47
2021/12/26 11:36:58;;;;;;;9.77;6.17;;;6.80;99.90;;;;;;5074575;28;21112;-47
2021/12/26 11:39:26;;;;;;;9.63;6.17;;;6.60;99.90;;;;;;5084989;27;20474;-47
2021/12/26 11:42:07;;;;;;;7.00;5.50;;;6.70;99.90;;;;;;5091381;27;20480;-46
2021/12/26 11:44:51;;;;;;;6.43;4.33;;;6.80;99.90;;;;;;5079990;28;20576;-47
2021/12/26 11:47:57;;;;;;;5.00;3.70;;;6.90;99.90;;;;;;5064136;28;20493;-46
2021/12/26 11:50:32;;;;;;;27.53;16.07;;;7.00;99.90;;;;;;5068682;28;20998;-47
2021/12/26 11:53:27;;;;;;;10.73;7.13;;;7.00;99.90;;;;;;5080435;28;20878;-46
2021/12/26 11:56:08;;;;;;;5.70;4.87;;;7.10;99.90;;;;;;5067306;28;20475;-47
2021/12/26 11:58:50;;;;;;;8.53;4.37;;;7.10;99.90;;;;;;5078120;28;20489;-46
2021/12/26 12:01:20;;;;;;;13.10;8.17;;;7.10;99.90;;;;;;5078340;28;20583;-46
2021/12/26 12:03:46;;;;;;;4.57;4.03;;;7.20;99.90;;;;;;5079238;28;20481;-46
2021/12/26 12:06:25;;;;;;;8.67;4.97;;;7.20;99.90;;;;;;5074107;28;20614;-47
2021/12/26 12:08:55;;;;;;;5.80;4.30;;;7.10;99.90;;;;;;5079488;28;20572;-46
2021/12/26 12:11:22;;;;;;;8.87;5.33;;;7.10;99.90;;;;;;5069959;28;20646;-47
2021/12/26 12:13:53;;;;;;;8.00;5.47;;;7.20;99.90;;;;;;5085685;28;20495;-46
2021/12/26 12:16:32;;;;;;;10.00;6.53;;;7.20;99.90;;;;;;5061894;28;20493;-47
2021/12/26 12:19:01;;;;;;;8.60;5.67;;;7.20;99.90;;;;;;5077509;28;20484;-46
2021/12/26 12:21:33;;;;;;;6.73;4.60;;;7.20;99.90;;;;;;5075440;28;20484;-46
2021/12/26 12:24:05;;;;;;;6.80;3.97;;;7.20;99.90;;;;;;5071953;28;20508;-46
2021/12/26 12:26:57;;;;;;;6.43;4.00;;;7.20;99.90;;;;;;5069033;28;20495;-46
2021/12/26 12:29:50;;;;;;;6.83;4.53;;;7.20;99.90;;;;;;5045385;28;20493;-46
2021/12/26 12:32:21;;;;;;;7.13;4.70;;;7.20;99.90;;;;;;5058562;28;20593;-46
2021/12/26 12:34:51;;;;;;;11.00;7.23;;;7.20;99.90;;;;;;5069990;28;21008;-46
2021/12/26 12:37:31;;;;;;;5.90;3.80;;;7.20;99.90;;;;;;5075578;28;20487;-46
2021/12/26 12:40:14;;;;;;;25.97;13.37;;;7.30;99.90;;;;;;5067438;28;21117;-46
2021/12/26 12:42:44;;;;;;;17.70;8.60;;;7.30;99.90;;;;;;5059616;28;20485;-46
2021/12/26 12:45:11;;;;;;;24.00;13.80;;;7.40;99.90;;;;;;5054926;28;20537;-46
2021/12/26 12:47:38;;;;;;;12.53;7.53;;;7.40;99.90;;;;;;5069726;28;20509;-46
2021/12/26 12:50:05;;;;;;;7.17;5.20;;;7.30;99.90;;;;;;5081689;28;21046;-46